sensor_id;sensor_type;location;lat;lon;timestamp;pressure;altitude;pressure_sealevel;temperature;humidity
62544;BME280;48597;49.030;1.822;2023-07-02T00:00:03;100463.75;;;25.67;40.28
62544;BME280;48597;49.030;1.822;2023-07-02T00:02:30;100462.16;;;25.66;40.11
62544;BME280;48597;49.030;1.822;2023-07-02T00:04:56;100459.28;;;25.66;40.03
62544;BME280;48597;49.030;1.822;2023-07-02T00:07:21;100465.06;;;25.66;40.10
62544;BME280;48597;49.030;1.822;2023-07-02T00:09:46;100464.25;;;25.66;40.17
62544;BME280;48597;49.030;1.822;2023-07-02T00:12:13;100464.25;;;25.66;39.98
62544;BME280;48597;49.030;1.822;2023-07-02T00:14:38;100461.88;;;25.64;39.88
62544;BME280;48597;49.030;1.822;2023-07-02T00:17:04;100463.47;;;25.65;39.83
62544;BME280;48597;49.030;1.822;2023-07-02T00:19:29;100454.81;;;25.65;40.04
62544;BME280;48597;49.030;1.822;2023-07-02T00:21:55;100463.16;;;25.63;39.82
62544;BME280;48597;49.030;1.822;2023-07-02T00:24:20;100466.06;;;25.63;39.82
62544;BME280;48597;49.030;1.822;2023-07-02T00:26:48;100457.41;;;25.63;39.80
62544;BME280;48597;49.030;1.822;2023-07-02T00:29:13;100461.56;;;25.62;39.85
62544;BME280;48597;49.030;1.822;2023-07-02T00:31:39;100460.28;;;25.63;39.83
62544;BME280;48597;49.030;1.822;2023-07-02T00:34:04;100454.50;;;25.63;39.63
62544;BME280;48597;49.030;1.822;2023-07-02T00:36:31;100445.84;;;25.63;39.63
62544;BME280;48597;49.030;1.822;2023-07-02T00:38:57;100460.28;;;25.63;39.59
62544;BME280;48597;49.030;1.822;2023-07-02T00:41:23;100457.09;;;25.61;39.50
62544;BME280;48597;49.030;1.822;2023-07-02T00:43:49;100457.09;;;25.61;39.61
62544;BME280;48597;49.030;1.822;2023-07-02T00:46:16;100459.16;;;25.60;39.51
62544;BME280;48597;49.030;1.822;2023-07-02T00:48:54;100455.81;;;25.62;39.35
62544;BME280;48597;49.030;1.822;2023-07-02T00:51:23;100455.47;;;25.60;39.28
62544;BME280;48597;49.030;1.822;2023-07-02T00:53:51;100459.16;;;25.60;39.48
62544;BME280;48597;49.030;1.822;2023-07-02T00:56:17;100448.09;;;25.59;39.30
62544;BME280;48597;49.030;1.822;2023-07-02T00:58:45;100456.78;;;25.59;39.31
62544;BME280;48597;49.030;1.822;2023-07-02T01:01:21;100464.94;;;25.60;39.16
62544;BME280;48597;49.030;1.822;2023-07-02T01:04:05;100459.66;;;25.59;39.14
62544;BME280;48597;49.030;1.822;2023-07-02T01:06:34;100463.06;;;25.57;39.02
62544;BME280;48597;49.030;1.822;2023-07-02T01:09:04;100462.28;;;25.57;38.88
62544;BME280;48597;49.030;1.822;2023-07-02T01:11:51;100458.06;;;25.58;38.95
62544;BME280;48597;49.030;1.822;2023-07-02T01:16:53;100468.03;;;25.57;38.91
62544;BME280;48597;49.030;1.822;2023-07-02T01:21:59;100470.63;;;25.55;38.79
62544;BME280;48597;49.030;1.822;2023-07-02T01:24:26;100472.22;;;25.56;38.65
62544;BME280;48597;49.030;1.822;2023-07-02T01:26:51;100472.22;;;25.56;38.69
62544;BME280;48597;49.030;1.822;2023-07-02T01:29:18;100482.19;;;25.55;38.72
62544;BME280;48597;49.030;1.822;2023-07-02T01:31:44;100483.47;;;25.54;38.64
62544;BME280;48597;49.030;1.822;2023-07-02T01:34:10;100483.47;;;25.54;38.67
62544;BME280;48597;49.030;1.822;2023-07-02T01:36:41;100494.50;;;25.55;38.73
62544;BME280;48597;49.030;1.822;2023-07-02T01:39:07;100485.06;;;25.55;38.55
62544;BME280;48597;49.030;1.822;2023-07-02T01:41:50;100472.72;;;25.54;38.75
62544;BME280;48597;49.030;1.822;2023-07-02T01:44:25;100479.78;;;25.53;38.54
62544;BME280;48597;49.030;1.822;2023-07-02T01:46:51;100470.34;;;25.53;38.64
62544;BME280;48597;49.030;1.822;2023-07-02T01:49:17;100473.22;;;25.53;38.67
62544;BME280;48597;49.030;1.822;2023-07-02T01:51:55;100478.19;;;25.52;38.43
62544;BME280;48597;49.030;1.822;2023-07-02T01:54:23;100477.41;;;25.52;38.54
62544;BME280;48597;49.030;1.822;2023-07-02T01:56:49;100475.81;;;25.51;38.36
62544;BME280;48597;49.030;1.822;2023-07-02T01:59:15;100477.09;;;25.50;38.42
62544;BME280;48597;49.030;1.822;2023-07-02T02:01:42;100477.09;;;25.50;38.59
62544;BME280;48597;49.030;1.822;2023-07-02T02:04:08;100478.38;;;25.49;38.43
62544;BME280;48597;49.030;1.822;2023-07-02T02:06:34;100471.81;;;25.48;38.62
62544;BME280;48597;49.030;1.822;2023-07-02T02:09:00;100476.78;;;25.48;38.76
62544;BME280;48597;49.030;1.822;2023-07-02T02:11:25;100476.00;;;25.47;40.00
62544;BME280;48597;49.030;1.822;2023-07-02T02:13:51;100471.53;;;25.46;40.01
62544;BME280;48597;49.030;1.822;2023-07-02T02:16:16;100481.47;;;25.45;39.61
62544;BME280;48597;49.030;1.822;2023-07-02T02:18:42;100482.28;;;25.46;39.33
62544;BME280;48597;49.030;1.822;2023-07-02T02:21:07;100485.16;;;25.46;39.11
62544;BME280;48597;49.030;1.822;2023-07-02T02:23:33;100477.28;;;25.46;38.84
62544;BME280;48597;49.030;1.822;2023-07-02T02:25:58;100474.91;;;25.45;38.94
62544;BME280;48597;49.030;1.822;2023-07-02T02:28:24;100479.13;;;25.44;38.91
62544;BME280;48597;49.030;1.822;2023-07-02T02:30:49;100477.53;;;25.43;38.77
62544;BME280;48597;49.030;1.822;2023-07-02T02:33:15;100486.19;;;25.43;38.80
62544;BME280;48597;49.030;1.822;2023-07-02T02:35:40;100487.78;;;25.44;38.56
62544;BME280;48597;49.030;1.822;2023-07-02T02:38:05;100484.59;;;25.42;38.63
62544;BME280;48597;49.030;1.822;2023-07-02T02:40:31;100484.59;;;25.42;38.63
62544;BME280;48597;49.030;1.822;2023-07-02T02:42:56;100496.13;;;25.42;38.74
62544;BME280;48597;49.030;1.822;2023-07-02T02:45:22;100489.56;;;25.41;38.56
62544;BME280;48597;49.030;1.822;2023-07-02T02:47:47;100493.25;;;25.42;38.42
62544;BME280;48597;49.030;1.822;2023-07-02T02:50:13;100487.97;;;25.40;38.37
62544;BME280;48597;49.030;1.822;2023-07-02T02:52:39;100498.72;;;25.40;38.34
62544;BME280;48597;49.030;1.822;2023-07-02T02:55:06;100490.56;;;25.38;38.31
62544;BME280;48597;49.030;1.822;2023-07-02T02:57:32;100495.81;;;25.40;38.21
62544;BME280;48597;49.030;1.822;2023-07-02T02:59:57;100491.84;;;25.37;38.35
62544;BME280;48597;49.030;1.822;2023-07-02T03:02:23;100501.28;;;25.38;38.40
62544;BME280;48597;49.030;1.822;2023-07-02T03:04:48;100493.44;;;25.38;38.26
62544;BME280;48597;49.030;1.822;2023-07-02T03:07:17;100492.63;;;25.38;38.33
62544;BME280;48597;49.030;1.822;2023-07-02T03:09:43;100488.94;;;25.37;38.12
62544;BME280;48597;49.030;1.822;2023-07-02T03:12:08;100484.47;;;25.36;38.34
62544;BME280;48597;49.030;1.822;2023-07-02T03:14:34;100487.84;;;25.35;38.22
62544;BME280;48597;49.030;1.822;2023-07-02T03:16:59;100490.25;;;25.36;38.31
62544;BME280;48597;49.030;1.822;2023-07-02T03:19:25;100508.06;;;25.35;38.35
62544;BME280;48597;49.030;1.822;2023-07-02T03:21:50;100499.41;;;25.35;38.32
62544;BME280;48597;49.030;1.822;2023-07-02T03:24:15;100496.50;;;25.35;38.32
62544;BME280;48597;49.030;1.822;2023-07-02T03:26:42;100499.41;;;25.35;38.00
62544;BME280;48597;49.030;1.822;2023-07-02T03:29:08;100503.56;;;25.34;38.16
62544;BME280;48597;49.030;1.822;2023-07-02T03:31:33;100502.28;;;25.35;38.01
62544;BME280;48597;49.030;1.822;2023-07-02T03:34:02;100500.69;;;25.34;37.93
62544;BME280;48597;49.030;1.822;2023-07-02T03:36:28;100505.66;;;25.33;37.94
62544;BME280;48597;49.030;1.822;2023-07-02T03:38:53;100509.06;;;25.32;37.83
62544;BME280;48597;49.030;1.822;2023-07-02T03:41:20;100517.72;;;25.32;37.87
62544;BME280;48597;49.030;1.822;2023-07-02T03:43:45;100516.41;;;25.33;37.98
62544;BME280;48597;49.030;1.822;2023-07-02T03:46:12;100519.81;;;25.31;38.01
62544;BME280;48597;49.030;1.822;2023-07-02T03:48:38;100525.59;;;25.31;38.01
62544;BME280;48597;49.030;1.822;2023-07-02T03:51:03;100527.69;;;25.31;37.84
62544;BME280;48597;49.030;1.822;2023-07-02T03:53:28;100536.31;;;25.31;37.94
62544;BME280;48597;49.030;1.822;2023-07-02T03:55:54;100524.78;;;25.31;37.79
62544;BME280;48597;49.030;1.822;2023-07-02T03:58:20;100526.88;;;25.30;37.72
62544;BME280;48597;49.030;1.822;2023-07-02T04:00:46;100533.13;;;25.28;37.74
62544;BME280;48597;49.030;1.822;2023-07-02T04:03:15;100528.97;;;25.30;37.64
62544;BME280;48597;49.030;1.822;2023-07-02T04:05:40;100532.66;;;25.30;37.67
62544;BME280;48597;49.030;1.822;2023-07-02T04:08:05;100528.16;;;25.29;37.69
62544;BME280;48597;49.030;1.822;2023-07-02T04:10:31;100526.56;;;25.28;37.52
62544;BME280;48597;49.030;1.822;2023-07-02T04:12:56;100542.28;;;25.27;37.56
62544;BME280;48597;49.030;1.822;2023-07-02T04:15:22;100538.59;;;25.26;37.75
62544;BME280;48597;49.030;1.822;2023-07-02T04:17:49;100530.44;;;25.25;37.73
62544;BME280;48597;49.030;1.822;2023-07-02T04:20:14;100528.34;;;25.25;37.60
62544;BME280;48597;49.030;1.822;2023-07-02T04:22:40;100536.22;;;25.25;37.73
62544;BME280;48597;49.030;1.822;2023-07-02T04:25:05;100534.13;;;25.25;38.95
62544;BME280;48597;49.030;1.822;2023-07-02T04:27:31;100539.91;;;25.25;39.97
62544;BME280;48597;49.030;1.822;2023-07-02T04:29:56;100537.50;;;25.24;40.13
62544;BME280;48597;49.030;1.822;2023-07-02T04:32:22;100540.88;;;25.22;40.47
62544;BME280;48597;49.030;1.822;2023-07-02T04:34:47;100545.06;;;25.21;40.87
62544;BME280;48597;49.030;1.822;2023-07-02T04:37:13;100542.66;;;25.20;40.87
62544;BME280;48597;49.030;1.822;2023-07-02T04:39:41;100549.72;;;25.19;41.16
62544;BME280;48597;49.030;1.822;2023-07-02T04:42:07;100547.63;;;25.19;41.03
62544;BME280;48597;49.030;1.822;2023-07-02T04:44:35;100543.69;;;25.17;41.04
62544;BME280;48597;49.030;1.822;2023-07-02T04:47:01;100549.44;;;25.17;40.15
62544;BME280;48597;49.030;1.822;2023-07-02T04:49:27;100541.59;;;25.17;39.63
62544;BME280;48597;49.030;1.822;2023-07-02T04:51:53;100541.59;;;25.17;39.48
62544;BME280;48597;49.030;1.822;2023-07-02T04:54:22;100544.47;;;25.17;39.49
62544;BME280;48597;49.030;1.822;2023-07-02T04:56:47;100542.09;;;25.16;39.09
62544;BME280;48597;49.030;1.822;2023-07-02T04:59:14;100555.22;;;25.17;38.99
62544;BME280;48597;49.030;1.822;2023-07-02T05:01:40;100551.53;;;25.16;38.76
62544;BME280;48597;49.030;1.822;2023-07-02T05:04:05;100544.97;;;25.16;38.84
62544;BME280;48597;49.030;1.822;2023-07-02T05:06:31;100547.06;;;25.15;38.73
62544;BME280;48597;49.030;1.822;2023-07-02T05:08:56;100549.94;;;25.15;38.54
62544;BME280;48597;49.030;1.822;2023-07-02T05:11:22;100557.31;;;25.16;38.57
62544;BME280;48597;49.030;1.822;2023-07-02T05:13:47;100552.81;;;25.15;38.48
62544;BME280;48597;49.030;1.822;2023-07-02T05:16:13;100554.13;;;25.14;38.44
62544;BME280;48597;49.030;1.822;2023-07-02T05:18:39;100561.97;;;25.14;38.40
62544;BME280;48597;49.030;1.822;2023-07-02T05:21:04;100557.00;;;25.14;38.50
62544;BME280;48597;49.030;1.822;2023-07-02T05:23:30;100555.41;;;25.13;38.43
62544;BME280;48597;49.030;1.822;2023-07-02T05:25:55;100569.81;;;25.13;38.34
62544;BME280;48597;49.030;1.822;2023-07-02T05:28:20;100561.19;;;25.13;38.47
62544;BME280;48597;49.030;1.822;2023-07-02T05:30:46;100561.19;;;25.13;38.28
62544;BME280;48597;49.030;1.822;2023-07-02T05:33:11;100568.53;;;25.14;38.47
62544;BME280;48597;49.030;1.822;2023-07-02T05:35:36;100574.00;;;25.12;38.17
62544;BME280;48597;49.030;1.822;2023-07-02T05:38:02;100571.91;;;25.13;38.34
62544;BME280;48597;49.030;1.822;2023-07-02T05:40:27;100576.88;;;25.12;38.24
62544;BME280;48597;49.030;1.822;2023-07-02T05:42:52;100580.56;;;25.13;38.26
62544;BME280;48597;49.030;1.822;2023-07-02T05:45:18;100577.69;;;25.13;38.29
62544;BME280;48597;49.030;1.822;2023-07-02T05:47:44;100579.78;;;25.12;38.43
62544;BME280;48597;49.030;1.822;2023-07-02T05:50:09;100574.81;;;25.13;38.36
62544;BME280;48597;49.030;1.822;2023-07-02T05:52:34;100577.69;;;25.13;38.33
62544;BME280;48597;49.030;1.822;2023-07-02T05:55:00;100581.06;;;25.11;38.29
62544;BME280;48597;49.030;1.822;2023-07-02T05:57:25;100576.09;;;25.12;38.41
62544;BME280;48597;49.030;1.822;2023-07-02T05:59:51;100587.31;;;25.10;38.31
62544;BME280;48597;49.030;1.822;2023-07-02T06:02:16;100586.81;;;25.11;38.30
62544;BME280;48597;49.030;1.822;2023-07-02T06:04:42;100583.16;;;25.11;38.26
62544;BME280;48597;49.030;1.822;2023-07-02T06:07:07;100594.19;;;25.12;38.40
62544;BME280;48597;49.030;1.822;2023-07-02T06:09:32;100591.00;;;25.10;38.39
62544;BME280;48597;49.030;1.822;2023-07-02T06:11:58;100591.00;;;25.10;38.41
62544;BME280;48597;49.030;1.822;2023-07-02T06:14:24;100593.41;;;25.12;38.29
62544;BME280;48597;49.030;1.822;2023-07-02T06:16:51;100602.84;;;25.12;38.40
62544;BME280;48597;49.030;1.822;2023-07-02T06:19:17;100601.25;;;25.11;38.43
62544;BME280;48597;49.030;1.822;2023-07-02T06:21:44;100606.72;;;25.09;38.45
62544;BME280;48597;49.030;1.822;2023-07-02T06:24:09;100605.72;;;25.12;38.44
62544;BME280;48597;49.030;1.822;2023-07-02T06:26:35;100607.00;;;25.11;38.51
62544;BME280;48597;49.030;1.822;2023-07-02T06:29:00;100604.94;;;25.12;38.58
62544;BME280;48597;49.030;1.822;2023-07-02T06:31:26;100603.34;;;25.11;38.58
62544;BME280;48597;49.030;1.822;2023-07-02T06:33:51;100617.75;;;25.11;38.66
62544;BME280;48597;49.030;1.822;2023-07-02T06:36:18;100621.44;;;25.11;38.64
62544;BME280;48597;49.030;1.822;2023-07-02T06:38:44;100614.88;;;25.11;38.73
62544;BME280;48597;49.030;1.822;2023-07-02T06:41:09;100615.66;;;25.11;38.79
62544;BME280;48597;49.030;1.822;2023-07-02T06:43:35;100616.16;;;25.10;38.80
62544;BME280;48597;49.030;1.822;2023-07-02T06:46:00;100621.13;;;25.09;39.32
62544;BME280;48597;49.030;1.822;2023-07-02T06:48:26;100621.63;;;25.08;40.10
62544;BME280;48597;49.030;1.822;2023-07-02T06:50:51;100627.88;;;25.06;39.63
62544;BME280;48597;49.030;1.822;2023-07-02T06:53:16;100621.84;;;25.04;39.17
62544;BME280;48597;49.030;1.822;2023-07-02T06:55:42;100628.88;;;25.03;39.20
62544;BME280;48597;49.030;1.822;2023-07-02T06:58:08;100620.22;;;25.03;39.16
62544;BME280;48597;49.030;1.822;2023-07-02T07:00:34;100628.56;;;25.01;39.02
62544;BME280;48597;49.030;1.822;2023-07-02T07:03:03;100627.78;;;25.01;38.98
62544;BME280;48597;49.030;1.822;2023-07-02T07:05:32;100625.38;;;24.99;38.92
62544;BME280;48597;49.030;1.822;2023-07-02T07:07:58;100623.00;;;24.98;38.99
62544;BME280;48597;49.030;1.822;2023-07-02T07:10:24;100621.41;;;24.97;38.77
62544;BME280;48597;49.030;1.822;2023-07-02T07:12:49;100634.22;;;24.96;38.80
62544;BME280;48597;49.030;1.822;2023-07-02T07:15:15;100632.13;;;24.96;38.99
62544;BME280;48597;49.030;1.822;2023-07-02T07:17:40;100626.38;;;24.96;39.24
62544;BME280;48597;49.030;1.822;2023-07-02T07:20:06;100639.19;;;24.95;39.33
62544;BME280;48597;49.030;1.822;2023-07-02T07:22:31;100634.72;;;24.94;39.40
62544;BME280;48597;49.030;1.822;2023-07-02T07:24:57;100628.94;;;24.94;39.49
62544;BME280;48597;49.030;1.822;2023-07-02T07:27:22;100636.31;;;24.95;39.59
62544;BME280;48597;49.030;1.822;2023-07-02T07:29:47;100642.06;;;24.95;39.69
62544;BME280;48597;49.030;1.822;2023-07-02T07:32:13;100644.94;;;24.95;39.72
62544;BME280;48597;49.030;1.822;2023-07-02T07:34:38;100644.94;;;24.95;39.68
62544;BME280;48597;49.030;1.822;2023-07-02T07:37:04;100633.41;;;24.95;39.83
62544;BME280;48597;49.030;1.822;2023-07-02T07:39:30;100645.75;;;24.96;39.91
62544;BME280;48597;49.030;1.822;2023-07-02T07:41:55;100642.38;;;24.97;39.85
62544;BME280;48597;49.030;1.822;2023-07-02T07:44:20;100643.19;;;24.98;39.83
62544;BME280;48597;49.030;1.822;2023-07-02T07:46:46;100643.19;;;24.98;39.95
62544;BME280;48597;49.030;1.822;2023-07-02T07:49:13;100640.59;;;25.00;39.94
62544;BME280;48597;49.030;1.822;2023-07-02T07:51:38;100636.13;;;24.99;39.91
62544;BME280;48597;49.030;1.822;2023-07-02T07:54:04;100636.91;;;24.99;39.93
62544;BME280;48597;49.030;1.822;2023-07-02T07:56:29;100646.38;;;25.00;40.11
62544;BME280;48597;49.030;1.822;2023-07-02T07:58:54;100640.59;;;25.00;40.00
62544;BME280;48597;49.030;1.822;2023-07-02T08:01:20;100641.41;;;25.00;40.10
62544;BME280;48597;49.030;1.822;2023-07-02T08:03:46;100647.97;;;25.01;40.02
62544;BME280;48597;49.030;1.822;2023-07-02T08:06:11;100644.28;;;25.00;40.08
62544;BME280;48597;49.030;1.822;2023-07-02T08:08:37;100645.88;;;25.01;40.11
62544;BME280;48597;49.030;1.822;2023-07-02T08:11:02;100646.69;;;25.02;40.18
62544;BME280;48597;49.030;1.822;2023-07-02T08:13:27;100647.47;;;25.02;40.14
62544;BME280;48597;49.030;1.822;2023-07-02T08:15:53;100649.06;;;25.03;40.09
62544;BME280;48597;49.030;1.822;2023-07-02T08:18:20;100645.41;;;25.03;40.25
62544;BME280;48597;49.030;1.822;2023-07-02T08:20:45;100646.19;;;25.03;40.25
62544;BME280;48597;49.030;1.822;2023-07-02T08:23:11;100653.56;;;25.04;40.23
62544;BME280;48597;49.030;1.822;2023-07-02T08:25:37;100655.63;;;25.04;40.26
62544;BME280;48597;49.030;1.822;2023-07-02T08:28:02;100653.84;;;25.06;40.43
62544;BME280;48597;49.030;1.822;2023-07-02T08:30:27;100653.84;;;25.06;40.32
62544;BME280;48597;49.030;1.822;2023-07-02T08:32:53;100657.03;;;25.08;40.53
62544;BME280;48597;49.030;1.822;2023-07-02T08:35:20;100655.75;;;25.09;40.16
62544;BME280;48597;49.030;1.822;2023-07-02T08:37:45;100655.75;;;25.09;40.48
62544;BME280;48597;49.030;1.822;2023-07-02T08:40:18;100652.38;;;25.11;40.45
62544;BME280;48597;49.030;1.822;2023-07-02T08:42:47;100654.44;;;25.10;40.89
62544;BME280;48597;49.030;1.822;2023-07-02T08:45:16;100654.44;;;25.10;41.72
62544;BME280;48597;49.030;1.822;2023-07-02T08:47:42;100657.34;;;25.10;42.13
62544;BME280;48597;49.030;1.822;2023-07-02T08:50:08;100660.22;;;25.10;42.37
62544;BME280;48597;49.030;1.822;2023-07-02T08:52:34;100654.44;;;25.10;41.79
62544;BME280;48597;49.030;1.822;2023-07-02T08:54:59;100653.16;;;25.11;42.36
62544;BME280;48597;49.030;1.822;2023-07-02T08:57:25;100656.03;;;25.11;42.77
62544;BME280;48597;49.030;1.822;2023-07-02T08:59:50;100654.75;;;25.12;42.78
62544;BME280;48597;49.030;1.822;2023-07-02T09:02:17;100656.34;;;25.13;43.01
62544;BME280;48597;49.030;1.822;2023-07-02T09:04:42;100662.13;;;25.13;43.17
62544;BME280;48597;49.030;1.822;2023-07-02T09:07:09;100660.84;;;25.14;43.24
62544;BME280;48597;49.030;1.822;2023-07-02T09:09:48;100650.09;;;25.15;43.07
62544;BME280;48597;49.030;1.822;2023-07-02T09:14:55;100648.50;;;25.14;43.36
62544;BME280;48597;49.030;1.822;2023-07-02T09:17:21;100646.41;;;25.14;43.41
62544;BME280;48597;49.030;1.822;2023-07-02T09:19:50;100654.28;;;25.14;43.18
62544;BME280;48597;49.030;1.822;2023-07-02T09:22:16;100640.66;;;25.14;43.38
62544;BME280;48597;49.030;1.822;2023-07-02T09:24:42;100644.31;;;25.15;43.38
62544;BME280;48597;49.030;1.822;2023-07-02T09:27:15;100650.91;;;25.15;43.33
62544;BME280;48597;49.030;1.822;2023-07-02T09:29:41;100644.31;;;25.15;42.98
62544;BME280;48597;49.030;1.822;2023-07-02T09:32:07;100639.34;;;25.15;43.14
62544;BME280;48597;49.030;1.822;2023-07-02T09:34:36;100640.16;;;25.16;43.05
62544;BME280;48597;49.030;1.822;2023-07-02T09:37:03;100653.28;;;25.17;43.10
62544;BME280;48597;49.030;1.822;2023-07-02T09:39:32;100654.09;;;25.17;42.87
62544;BME280;48597;49.030;1.822;2023-07-02T09:41:59;100652.50;;;25.16;42.98
62544;BME280;48597;49.030;1.822;2023-07-02T09:44:29;100654.88;;;25.18;43.02
62544;BME280;48597;49.030;1.822;2023-07-02T09:47:02;100651.22;;;25.17;43.11
62544;BME280;48597;49.030;1.822;2023-07-02T09:49:41;100653.56;;;25.19;42.88
62544;BME280;48597;49.030;1.822;2023-07-02T09:52:10;100645.72;;;25.19;43.03
62544;BME280;48597;49.030;1.822;2023-07-02T09:54:36;100646.50;;;25.20;43.05
62544;BME280;48597;49.030;1.822;2023-07-02T09:57:03;100642.81;;;25.19;42.86
62544;BME280;48597;49.030;1.822;2023-07-02T09:59:29;100645.22;;;25.21;42.90
62544;BME280;48597;49.030;1.822;2023-07-02T10:01:55;100653.88;;;25.21;42.96
62544;BME280;48597;49.030;1.822;2023-07-02T10:04:22;100645.22;;;25.21;42.96
62544;BME280;48597;49.030;1.822;2023-07-02T10:06:52;100646.50;;;25.20;43.75
62544;BME280;48597;49.030;1.822;2023-07-02T10:09:19;100656.47;;;25.19;44.05
62544;BME280;48597;49.030;1.822;2023-07-02T10:11:46;100656.47;;;25.19;44.44
62544;BME280;48597;49.030;1.822;2023-07-02T10:14:11;100656.97;;;25.17;44.37
62544;BME280;48597;49.030;1.822;2023-07-02T10:16:51;100652.00;;;25.18;44.47
62544;BME280;48597;49.030;1.822;2023-07-02T10:19:16;100649.59;;;25.16;44.32
62544;BME280;48597;49.030;1.822;2023-07-02T10:21:42;100650.41;;;25.17;44.36
62544;BME280;48597;49.030;1.822;2023-07-02T10:26:37;100657.78;;;25.18;44.32
62544;BME280;48597;49.030;1.822;2023-07-02T10:29:02;100654.09;;;25.17;44.50
62544;BME280;48597;49.030;1.822;2023-07-02T10:31:28;100644.31;;;25.15;44.47
62544;BME280;48597;49.030;1.822;2023-07-02T10:33:53;100645.13;;;25.15;44.55
62544;BME280;48597;49.030;1.822;2023-07-02T10:36:23;100643.03;;;25.16;44.39
62544;BME280;48597;49.030;1.822;2023-07-02T10:38:50;100647.53;;;25.17;44.38
62544;BME280;48597;49.030;1.822;2023-07-02T10:41:27;100640.16;;;25.16;43.97
62544;BME280;48597;49.030;1.822;2023-07-02T10:43:52;100644.63;;;25.17;43.83
62544;BME280;48597;49.030;1.822;2023-07-02T10:46:21;100645.44;;;25.17;43.85
62544;BME280;48597;49.030;1.822;2023-07-02T10:48:56;100642.56;;;25.17;43.57
62544;BME280;48597;49.030;1.822;2023-07-02T10:51:22;100629.41;;;25.16;43.34
62544;BME280;48597;49.030;1.822;2023-07-02T10:54:02;100643.84;;;25.16;43.27
62544;BME280;48597;49.030;1.822;2023-07-02T10:56:30;100640.94;;;25.16;43.24
62544;BME280;48597;49.030;1.822;2023-07-02T10:58:55;100650.41;;;25.17;43.28
62544;BME280;48597;49.030;1.822;2023-07-02T11:01:25;100643.34;;;25.18;43.15
62544;BME280;48597;49.030;1.822;2023-07-02T11:03:56;100639.66;;;25.17;42.95
62544;BME280;48597;49.030;1.822;2023-07-02T11:06:21;100643.34;;;25.18;42.88
62544;BME280;48597;49.030;1.822;2023-07-02T11:08:46;100645.44;;;25.17;42.83
62544;BME280;48597;49.030;1.822;2023-07-02T11:11:12;100656.47;;;25.19;42.83
62544;BME280;48597;49.030;1.822;2023-07-02T11:13:44;100639.16;;;25.19;42.79
62544;BME280;48597;49.030;1.822;2023-07-02T11:18:49;100636.56;;;25.21;42.59
62544;BME280;48597;49.030;1.822;2023-07-02T11:21:15;100654.69;;;25.21;42.87
62544;BME280;48597;49.030;1.822;2023-07-02T11:23:41;100648.91;;;25.21;42.65
62544;BME280;48597;49.030;1.822;2023-07-02T11:26:06;100643.13;;;25.21;42.74
62544;BME280;48597;49.030;1.822;2023-07-02T11:28:32;100644.72;;;25.22;42.64
62544;BME280;48597;49.030;1.822;2023-07-02T11:30:59;100645.53;;;25.23;42.77
62544;BME280;48597;49.030;1.822;2023-07-02T11:33:39;100647.63;;;25.22;42.76
62544;BME280;48597;49.030;1.822;2023-07-02T11:36:06;100643.13;;;25.21;42.92
62544;BME280;48597;49.030;1.822;2023-07-02T11:38:33;100642.66;;;25.23;42.67
62544;BME280;48597;49.030;1.822;2023-07-02T11:40:59;100648.41;;;25.23;42.78
62544;BME280;48597;49.030;1.822;2023-07-02T11:43:25;100636.38;;;25.24;42.92
62544;BME280;48597;49.030;1.822;2023-07-02T11:45:51;100634.78;;;25.23;42.84
62544;BME280;48597;49.030;1.822;2023-07-02T11:48:17;100639.28;;;25.24;42.91
62544;BME280;48597;49.030;1.822;2023-07-02T11:50:42;100635.59;;;25.24;42.91
62544;BME280;48597;49.030;1.822;2023-07-02T11:53:08;100647.13;;;25.24;43.02
62544;BME280;48597;49.030;1.822;2023-07-02T11:55:33;100642.16;;;25.24;43.02
62544;BME280;48597;49.030;1.822;2023-07-02T11:57:59;100643.75;;;25.25;43.05
62544;BME280;48597;49.030;1.822;2023-07-02T12:00:24;100641.66;;;25.26;43.20
62544;BME280;48597;49.030;1.822;2023-07-02T12:02:51;100645.34;;;25.26;43.56
62544;BME280;48597;49.030;1.822;2023-07-02T12:05:16;100641.16;;;25.27;43.45
62544;BME280;48597;49.030;1.822;2023-07-02T12:07:41;100642.78;;;25.28;43.34
62544;BME280;48597;49.030;1.822;2023-07-02T12:10:08;100637.00;;;25.28;43.30
62544;BME280;48597;49.030;1.822;2023-07-02T12:12:33;100633.31;;;25.28;43.49
62544;BME280;48597;49.030;1.822;2023-07-02T12:14:59;100641.47;;;25.30;43.51
62544;BME280;48597;49.030;1.822;2023-07-02T12:17:24;100634.13;;;25.28;43.37
62544;BME280;48597;49.030;1.822;2023-07-02T12:19:50;100648.06;;;25.30;43.50
62544;BME280;48597;49.030;1.822;2023-07-02T12:22:15;100651.72;;;25.31;43.40
62544;BME280;48597;49.030;1.822;2023-07-02T12:24:43;100648.84;;;25.31;43.50
62544;BME280;48597;49.030;1.822;2023-07-02T12:27:08;100645.97;;;25.31;43.64
62544;BME280;48597;49.030;1.822;2023-07-02T12:29:35;100648.84;;;25.31;43.52
62544;BME280;48597;49.030;1.822;2023-07-02T12:32:00;100646.75;;;25.31;43.56
62544;BME280;48597;49.030;1.822;2023-07-02T12:34:26;100649.66;;;25.31;43.61
62544;BME280;48597;49.030;1.822;2023-07-02T12:36:52;100654.09;;;25.32;43.56
62544;BME280;48597;49.030;1.822;2023-07-02T12:39:17;100650.44;;;25.32;43.75
62544;BME280;48597;49.030;1.822;2023-07-02T12:41:42;100649.66;;;25.31;43.72
62544;BME280;48597;49.030;1.822;2023-07-02T12:44:08;100643.34;;;25.33;43.57
62544;BME280;48597;49.030;1.822;2023-07-02T12:46:33;100631.00;;;25.32;43.70
62544;BME280;48597;49.030;1.822;2023-07-02T12:48:58;100635.50;;;25.33;43.70
62544;BME280;48597;49.030;1.822;2023-07-02T12:51:24;100639.19;;;25.34;43.65
62544;BME280;48597;49.030;1.822;2023-07-02T12:53:49;100634.22;;;25.34;43.53
62544;BME280;48597;49.030;1.822;2023-07-02T12:56:15;100636.28;;;25.34;43.80
62544;BME280;48597;49.030;1.822;2023-07-02T12:58:40;100639.19;;;25.34;43.77